Time;durP1;ratioP1;P1;durP2;ratioP2;P2;SDS_P1;SDS_P2;PMS_P1;PMS_P2;Temp;Humidity;BMP_temperature;BMP_pressure;BME280_temperature;BME280_humidity;BME280_pressure;Samples;Min_cycle;Max_cycle;Signal;HPM_P1;HPM_P2
2021/05/03 00:00:19;;;;;;;5.70;1.98;;;;;;;15.20;70.49;96621.82;1718589;83;21648;-76
2021/05/03 00:02:48;;;;;;;3.75;1.85;;;;;;;15.14;70.54;96613.50;1718624;83;21151;-77
2021/05/03 00:05:23;;;;;;;5.67;2.00;;;;;;;15.10;70.52;96608.20;1718493;83;21188;-75
2021/05/03 00:07:50;;;;;;;3.67;1.70;;;;;;;15.06;70.68;96610.02;1691371;83;21183;-76
2021/05/03 00:10:19;;;;;;;4.72;1.40;;;;;;;15.01;70.68;96618.95;1718627;83;21511;-75
2021/05/03 00:12:47;;;;;;;2.98;0.90;;;;;;;14.93;70.53;96599.38;1718578;83;21558;-74
2021/05/03 00:15:16;;;;;;;5.25;1.00;;;;;;;14.90;70.16;96606.32;1718641;83;21175;-74
2021/05/03 00:17:44;;;;;;;1.45;0.70;;;;;;;14.88;70.15;96606.16;1700212;83;21117;-76
2021/05/03 00:20:12;;;;;;;2.50;0.70;;;;;;;14.85;69.39;96609.97;1718603;83;21148;-76
2021/05/03 00:22:40;;;;;;;2.85;0.65;;;;;;;14.86;68.95;96617.42;1718557;83;21140;-75
2021/05/03 00:25:09;;;;;;;1.45;0.60;;;;;;;14.86;68.18;96620.92;1718378;83;21148;-75
2021/05/03 00:27:36;;;;;;;1.75;0.60;;;;;;;14.87;67.18;96615.10;1718715;83;21148;-75
2021/05/03 00:30:06;;;;;;;3.55;0.53;;;;;;;14.89;65.58;96621.09;1705372;83;21610;-76
2021/05/03 00:32:33;;;;;;;1.27;0.60;;;;;;;14.91;64.67;96616.45;1694768;84;21172;-74
2021/05/03 00:35:00;;;;;;;3.22;0.85;;;;;;;14.91;64.01;96616.45;1694729;85;21125;-75
2021/05/03 00:37:27;;;;;;;8.48;0.95;;;;;;;14.89;62.77;96617.11;1695066;84;21144;-75
2021/05/03 00:39:55;;;;;;;4.05;0.70;;;;;;;14.87;62.50;96622.59;1694737;84;21140;-76
2021/05/03 00:42:22;;;;;;;2.60;0.82;;;;;;;14.86;62.59;96620.92;1695320;85;21140;-76
2021/05/03 00:44:51;;;;;;;1.75;0.72;;;;;;;14.83;62.46;96626.54;1694773;85;21590;-76
2021/05/03 00:47:19;;;;;;;3.17;0.47;;;;;;;14.81;61.59;96633.34;1694848;84;21578;-74
2021/05/03 00:49:47;;;;;;;2.92;0.60;;;;;;;14.76;61.08;96637.47;1679550;85;21109;-75
2021/05/03 00:52:15;;;;;;;6.62;1.00;;;;;;;14.72;61.15;96644.07;1694818;84;21157;-76
2021/05/03 00:54:42;;;;;;;3.30;0.78;;;;;;;14.58;60.61;96645.48;1694844;84;21097;-76
2021/05/03 00:57:10;;;;;;;3.05;0.90;;;;;;;14.32;61.21;96642.38;1694943;85;21156;-76
2021/05/03 00:59:38;;;;;;;5.33;1.20;;;;;;;14.13;61.75;96649.58;1694897;83;21164;-74
2021/05/03 01:02:05;;;;;;;3.30;1.07;;;;;;;13.89;62.17;96656.39;1695087;85;21570;-75
2021/05/03 01:04:33;;;;;;;1.95;0.80;;;;;;;13.68;62.80;96664.69;1695337;84;21230;-75
2021/05/03 01:07:00;;;;;;;2.00;1.32;;;;;;;13.43;62.93;96667.10;1695114;84;21124;-75
2021/05/03 01:09:28;;;;;;;7.97;0.95;;;;;;;13.33;63.52;96678.73;1695079;85;21132;-76
2021/05/03 01:11:55;;;;;;;4.72;0.90;;;;;;;13.25;64.00;96680.79;1695176;84;21136;-75
2021/05/03 01:14:22;;;;;;;4.42;1.00;;;;;;;13.19;64.15;96684.05;1677886;85;21148;-76
2021/05/03 01:16:49;;;;;;;5.42;0.95;;;;;;;13.00;63.11;96682.34;1679029;85;21206;-76
2021/05/03 01:19:19;;;;;;;4.25;0.80;;;;;;;12.88;63.83;96677.28;1694954;85;21621;-75
2021/05/03 01:21:47;;;;;;;4.50;1.00;;;;;;;12.75;63.65;96678.95;1695075;84;21546;-75
2021/05/03 01:24:16;;;;;;;1.65;0.90;;;;;;;12.58;63.94;96683.67;1695148;84;21152;-75
2021/05/03 01:26:46;;;;;;;2.35;0.95;;;;;;;12.47;64.06;96686.02;1695345;84;21567;-76
2021/05/03 01:29:15;;;;;;;7.75;1.00;;;;;;;12.39;64.15;96686.73;1695182;84;21163;-76
2021/05/03 01:31:49;;;;;;;0.72;0.60;;;;;;;12.34;64.17;96692.45;1695391;84;21140;-76
2021/05/03 01:34:16;;;;;;;2.30;0.80;;;;;;;12.24;63.95;96703.57;1695362;84;21602;-76
2021/05/03 01:36:46;;;;;;;2.35;0.80;;;;;;;12.08;63.84;96710.77;1695269;85;21140;-76
2021/05/03 01:39:16;;;;;;;2.25;1.00;;;;;;;11.89;64.24;96712.90;1695135;85;21153;-74
2021/05/03 01:41:44;;;;;;;3.90;0.75;;;;;;;11.87;64.83;96711.73;1695281;84;21571;-74
2021/05/03 01:44:16;;;;;;;0.98;0.80;;;;;;;11.86;64.50;96700.81;1695117;84;21161;-74
2021/05/03 01:46:44;;;;;;;4.30;1.10;;;;;;;11.83;64.61;96703.73;1695116;84;21190;-73
2021/05/03 01:49:11;;;;;;;1.42;0.80;;;;;;;11.79;64.44;96707.64;1695133;84;21120;-76
2021/05/03 01:51:39;;;;;;;1.77;0.90;;;;;;;11.77;64.35;96718.83;1695184;85;21164;-74
2021/05/03 01:54:07;;;;;;;2.12;0.80;;;;;;;11.63;63.50;96731.14;1679351;85;21129;-74
2021/05/03 01:56:35;;;;;;;3.17;0.93;;;;;;;11.52;63.45;96742.17;1695587;85;21200;-75
2021/05/03 01:59:07;;;;;;;1.40;0.80;;;;;;;11.47;63.71;96744.38;1695241;84;21578;-75
2021/05/03 02:01:40;;;;;;;4.33;0.88;;;;;;;11.41;63.56;96745.76;1695226;85;21132;-74
2021/05/03 02:04:09;;;;;;;8.00;1.00;;;;;;;11.30;62.94;96746.37;1695092;85;21139;-74
2021/05/03 02:06:37;;;;;;;1.87;0.82;;;;;;;11.14;63.34;96751.70;1667493;85;21149;-75
2021/05/03 02:09:10;;;;;;;3.67;1.00;;;;;;;11.03;63.21;96764.98;1681910;85;21128;-74
2021/05/03 02:11:39;;;;;;;2.25;0.82;;;;;;;10.90;63.37;96763.91;1695164;84;21172;-75
2021/05/03 02:14:09;;;;;;;3.12;0.88;;;;;;;10.81;63.66;96769.97;1695463;84;21168;-73
2021/05/03 02:16:36;;;;;;;0.93;0.70;;;;;;;10.74;63.76;96769.66;1695223;84;21549;-75
2021/05/03 02:19:05;;;;;;;1.05;0.80;;;;;;;10.66;63.75;96786.63;1695040;85;21121;-75
2021/05/03 02:21:32;;;;;;;1.50;0.80;;;;;;;10.51;63.72;96788.77;1695401;84;21145;-75
2021/05/03 02:24:00;;;;;;;4.37;0.88;;;;;;;10.46;64.05;96802.33;1679062;85;21164;-75
2021/05/03 02:26:27;;;;;;;1.87;0.90;;;;;;;10.41;64.30;96807.17;1695507;85;21630;-76
2021/05/03 02:28:54;;;;;;;1.45;0.85;;;;;;;10.34;64.48;96808.13;1695619;85;21278;-76
2021/05/03 02:31:21;;;;;;;2.30;1.02;;;;;;;10.32;64.71;96808.73;1695426;84;21175;-76
2021/05/03 02:33:49;;;;;;;6.28;1.05;;;;;;;10.30;64.72;96814.14;1695306;85;21547;-75
2021/05/03 02:36:18;;;;;;;1.47;0.98;;;;;;;10.25;64.17;96812.84;1695605;84;21149;-75
2021/05/03 02:38:45;;;;;;;3.83;0.90;;;;;;;10.21;64.66;96825.44;1695495;85;21282;-74
2021/05/03 02:41:12;;;;;;;6.75;0.93;;;;;;;10.15;64.40;96827.28;1686983;85;21148;-74
2021/05/03 02:43:39;;;;;;;1.67;0.90;;;;;;;10.11;64.28;96824.53;1695386;84;21574;-75
2021/05/03 02:46:07;;;;;;;1.40;1.07;;;;;;;10.06;64.20;96829.36;1695326;84;21614;-75
2021/05/03 02:48:35;;;;;;;3.27;1.17;;;;;;;9.95;63.98;96836.34;1695414;84;21137;-76
2021/05/03 02:51:03;;;;;;;8.33;1.15;;;;;;;9.87;64.11;96834.81;1695626;84;21148;-76
2021/05/03 02:53:30;;;;;;;2.17;1.40;;;;;;;9.79;64.24;96835.92;1695187;84;21160;-76
2021/05/03 02:55:57;;;;;;;2.92;1.27;;;;;;;9.75;64.15;96845.02;1695336;85;21125;-76
2021/05/03 02:58:25;;;;;;;1.75;1.20;;;;;;;9.66;64.28;96849.21;1695278;84;21151;-75
2021/05/03 03:00:52;;;;;;;1.10;0.90;;;;;;;9.61;64.33;96846.95;1695149;84;21165;-74
2021/05/03 03:03:19;;;;;;;5.03;1.35;;;;;;;9.55;64.33;96854.03;1695253;85;21275;-75
2021/05/03 03:05:47;;;;;;;2.77;1.32;;;;;;;9.45;64.19;96863.61;1695258;84;21132;-75
2021/05/03 03:08:15;;;;;;;3.95;1.60;;;;;;;9.38;64.26;96865.42;1695367;84;21150;-75
2021/05/03 03:10:42;;;;;;;4.03;1.60;;;;;;;9.33;64.63;96875.95;1695289;84;21586;-75
2021/05/03 03:13:10;;;;;;;4.30;1.42;;;;;;;9.29;64.66;96872.73;1673613;85;21141;-73
2021/05/03 03:15:38;;;;;;;5.33;1.40;;;;;;;9.26;64.68;96878.22;1649867;87;21102;-75
2021/05/03 03:18:06;;;;;;;4.00;1.50;;;;;;;9.21;64.78;96886.47;1687630;84;21117;-75
2021/05/03 03:20:35;;;;;;;1.60;1.20;;;;;;;9.19;64.83;96887.55;1651211;87;21101;-75
2021/05/03 03:23:03;;;;;;;2.22;1.72;;;;;;;9.14;64.81;96895.80;1695183;85;21148;-75
2021/05/03 03:25:31;;;;;;;3.25;1.50;;;;;;;9.10;64.95;96895.66;1695358;84;21164;-73
2021/05/03 03:27:58;;;;;;;4.53;1.67;;;;;;;9.09;65.05;96899.73;1695129;85;21274;-74
2021/05/03 03:30:26;;;;;;;2.20;1.70;;;;;;;9.06;65.11;96903.45;1694939;84;21156;-75
2021/05/03 03:32:53;;;;;;;2.77;1.70;;;;;;;9.05;65.23;96913.60;1695494;85;21156;-77
2021/05/03 03:35:21;;;;;;;1.92;1.60;;;;;;;9.03;65.34;96907.16;1696517;84;21148;-78
2021/05/03 03:37:49;;;;;;;2.20;1.60;;;;;;;9.02;65.40;96921.26;1696344;84;21149;-78
2021/05/03 03:40:18;;;;;;;4.42;1.70;;;;;;;9.03;65.51;96929.97;1696611;85;21164;-77
2021/05/03 03:42:46;;;;;;;4.15;1.75;;;;;;;9.02;65.60;96931.77;1696485;84;21542;-77
2021/05/03 03:45:15;;;;;;;3.55;1.55;;;;;;;8.99;65.46;96944.32;1696656;84;21299;-76
2021/05/03 03:47:43;;;;;;;2.17;1.70;;;;;;;8.99;66.14;96944.32;1696826;85;21152;-77
2021/05/03 03:50:11;;;;;;;4.05;1.70;;;;;;;9.01;65.74;96947.64;1696725;84;21140;-77
2021/05/03 03:52:41;;;;;;;2.45;1.60;;;;;;;9.04;65.70;96947.42;1695521;84;21121;-76
2021/05/03 03:55:09;;;;;;;5.72;1.57;;;;;;;9.10;65.80;96947.43;1696518;84;21156;-76
2021/05/03 03:57:37;;;;;;;3.25;1.62;;;;;;;9.15;66.03;96957.95;1696292;85;21147;-77
2021/05/03 04:00:06;;;;;;;1.98;1.50;;;;;;;9.24;65.97;96965.60;1696349;83;21161;-78
2021/05/03 04:02:36;;;;;;;2.20;1.47;;;;;;;9.34;66.09;96963.94;1696385;85;21272;-77
2021/05/03 04:05:27;;;;;;;2.52;1.55;;;;;;;9.46;66.23;96986.31;1695944;84;21135;-76
2021/05/03 04:07:55;;;;;;;2.12;1.67;;;;;;;9.58;66.37;96987.15;1694748;84;21145;-77
2021/05/03 04:21:34;;;;;;;2.40;1.80;;;;;;;10.65;65.65;96984.81;1695816;85;21145;-75
2021/05/03 04:26:25;;;;;;;2.45;1.80;;;;;;;11.52;64.24;96963.04;1695171;84;21177;-76
2021/05/03 04:28:53;;;;;;;2.37;1.70;;;;;;;12.27;63.40;96982.56;1694823;84;21124;-76
2021/05/03 04:31:22;;;;;;;3.85;1.57;;;;;;;12.86;62.23;96982.56;1708427;83;21151;-77
2021/05/03 04:33:51;;;;;;;3.02;1.80;;;;;;;13.46;61.38;96988.14;1718684;83;21152;-77
2021/05/03 04:36:19;;;;;;;2.25;1.80;;;;;;;14.03;59.95;96985.38;1718735;83;21575;-77
2021/05/03 04:38:47;;;;;;;1.95;1.62;;;;;;;14.55;59.04;96986.10;1718560;83;21144;-76
2021/05/03 04:41:16;;;;;;;2.30;1.50;;;;;;;14.91;58.59;96994.59;1718813;83;21237;-76
2021/05/03 04:43:43;;;;;;;2.00;1.80;;;;;;;15.33;57.34;96989.09;1718540;83;21117;-76
2021/05/03 04:46:10;;;;;;;1.95;1.60;;;;;;;15.59;55.64;96998.39;1718482;83;21113;-77
2021/05/03 04:48:38;;;;;;;3.40;1.80;;;;;;;15.90;54.84;97001.41;1718879;83;21116;-75
2021/05/03 04:51:06;;;;;;;4.83;1.57;;;;;;;16.28;54.92;97010.84;1718883;83;21148;-76
2021/05/03 04:53:33;;;;;;;4.95;1.55;;;;;;;16.57;53.29;97002.44;1718528;83;21573;-74
2021/05/03 04:56:03;;;;;;;1.87;1.60;;;;;;;16.78;52.66;97002.47;1690034;85;21148;-75
2021/05/03 04:58:30;;;;;;;1.92;1.50;;;;;;;17.09;50.21;97003.16;1689905;85;21148;-76
2021/05/03 05:00:58;;;;;;;2.20;1.50;;;;;;;17.21;50.30;97005.83;1702829;83;21148;-74
2021/05/03 05:03:25;;;;;;;1.87;1.60;;;;;;;17.45;50.02;97012.97;1718670;83;21144;-76
2021/05/03 05:05:53;;;;;;;5.60;1.60;;;;;;;17.84;49.20;97002.04;1718598;83;21164;-76
2021/05/03 05:08:22;;;;;;;2.12;1.40;;;;;;;18.24;47.91;96998.08;1718484;83;21104;-75
2021/05/03 05:10:50;;;;;;;2.00;1.50;;;;;;;18.51;47.57;96999.96;1718555;83;21163;-76
2021/05/03 05:13:17;;;;;;;2.08;1.45;;;;;;;18.84;46.33;97006.41;1718595;83;21164;-76
2021/05/03 05:15:44;;;;;;;1.95;1.37;;;;;;;19.21;46.03;97006.66;1718585;83;21163;-76
2021/05/03 05:18:12;;;;;;;3.60;1.50;;;;;;;19.55;45.18;97004.00;1718555;83;21184;-76
2021/05/03 05:20:40;;;;;;;1.37;1.17;;;;;;;19.70;42.14;96996.81;1718595;83;21138;-76
2021/05/03 05:23:07;;;;;;;2.05;1.40;;;;;;;20.01;43.19;97011.04;1718144;83;21147;-76
2021/05/03 05:25:35;;;;;;;5.60;1.87;;;;;;;20.16;41.83;97005.19;1718556;83;21606;-76
2021/05/03 05:28:03;;;;;;;2.85;1.50;;;;;;;20.23;41.38;97008.77;1718592;83;21160;-75
2021/05/03 05:30:31;;;;;;;2.00;1.40;;;;;;;20.36;41.00;97013.98;1718380;83;21148;-75
2021/05/03 05:32:58;;;;;;;4.30;1.77;;;;;;;20.68;41.55;97019.88;1716328;84;21587;-76
2021/05/03 05:35:25;;;;;;;3.25;1.70;;;;;;;20.99;39.89;97018.80;1716228;83;21173;-74
2021/05/03 05:37:53;;;;;;;7.22;2.02;;;;;;;20.85;40.12;97017.84;1716196;83;21201;-76
2021/05/03 05:40:21;;;;;;;2.22;1.70;;;;;;;20.47;40.22;97023.36;1716279;84;21144;-75
2021/05/03 05:42:48;;;;;;;1.90;1.40;;;;;;;19.74;40.33;97004.80;1716410;84;21164;-76
2021/05/03 05:45:17;;;;;;;1.77;1.12;;;;;;;19.28;39.55;97020.44;1714721;84;21681;-76
2021/05/03 05:47:44;;;;;;;2.22;1.50;;;;;;;18.68;40.21;97025.54;1716344;83;21535;-76
2021/05/03 05:50:12;;;;;;;2.70;1.70;;;;;;;18.01;40.88;97030.86;1716365;83;21149;-76
2021/05/03 05:52:39;;;;;;;3.92;1.50;;;;;;;17.80;41.75;97033.55;1716412;83;21745;-76
2021/05/03 05:55:07;;;;;;;2.98;1.67;;;;;;;17.56;41.93;97041.09;1716339;83;21153;-76
2021/05/03 05:57:35;;;;;;;3.08;1.85;;;;;;;17.48;42.22;97041.95;1716715;83;21598;-75
2021/05/03 06:00:04;;;;;;;2.22;1.77;;;;;;;17.26;42.44;97042.10;1716353;82;21188;-75
2021/05/03 06:02:33;;;;;;;1.90;1.65;;;;;;;17.04;42.46;97047.59;1715190;83;21534;-76
2021/05/03 06:05:01;;;;;;;2.17;1.50;;;;;;;16.88;42.69;97047.08;1716445;83;21141;-76
2021/05/03 06:07:29;;;;;;;3.85;1.70;;;;;;;16.78;42.94;97045.06;1716502;83;21159;-77
2021/05/03 06:09:57;;;;;;;2.02;1.60;;;;;;;17.14;43.52;97054.92;1716792;83;21230;-77
2021/05/03 06:12:25;;;;;;;2.22;1.50;;;;;;;17.71;43.36;97055.08;1716677;83;21689;-76
2021/05/03 06:14:53;;;;;;;2.05;1.50;;;;;;;18.19;42.51;97054.61;1716501;83;21602;-75
2021/05/03 06:17:21;;;;;;;3.95;1.40;;;;;;;18.49;41.82;97050.00;1716378;83;21156;-76
2021/05/03 06:19:49;;;;;;;3.37;1.50;;;;;;;18.99;41.44;97053.23;1716402;83;21140;-76
2021/05/03 06:22:16;;;;;;;1.60;1.00;;;;;;;19.08;40.83;97055.33;1707937;83;21150;-74
2021/05/03 06:24:44;;;;;;;11.60;7.90;;;;;;;19.08;40.61;97060.18;1716428;83;21188;-74
2021/05/03 06:27:11;;;;;;;1.90;1.32;;;;;;;19.32;40.63;97061.83;1716334;83;21563;-74
2021/05/03 06:29:39;;;;;;;1.95;1.37;;;;;;;19.35;39.57;97061.45;1694567;83;21534;-76
2021/05/03 06:32:07;;;;;;;2.50;1.30;;;;;;;19.37;39.06;97051.94;1717834;83;21180;-76
2021/05/03 06:34:36;;;;;;;2.10;1.50;;;;;;;19.34;38.96;97053.14;1718750;83;21578;-75
2021/05/03 06:37:04;;;;;;;2.92;1.20;;;;;;;19.52;38.79;97051.98;1718715;83;21148;-74
2021/05/03 06:39:31;;;;;;;6.67;1.67;;;;;;;19.85;38.71;97048.16;1718666;83;21581;-77
2021/05/03 06:41:59;;;;;;;1.87;1.17;;;;;;;20.08;38.38;97052.93;1718761;83;21173;-76
2021/05/03 06:44:26;;;;;;;3.25;1.30;;;;;;;20.16;37.77;97052.50;1718731;83;21152;-76
2021/05/03 06:46:53;;;;;;;1.57;1.17;;;;;;;20.49;38.38;97053.45;1718946;83;21202;-76
2021/05/03 06:49:21;;;;;;;2.98;1.30;;;;;;;21.03;37.53;97057.07;1718655;83;21164;-76
2021/05/03 06:51:50;;;;;;;2.52;1.80;;;;;;;21.50;36.73;97053.45;1699464;83;21196;-77
2021/05/03 06:54:17;;;;;;;1.40;1.10;;;;;;;21.99;37.27;97054.97;1718739;83;21151;-75
2021/05/03 06:56:44;;;;;;;2.77;1.25;;;;;;;22.40;35.67;97054.20;1718785;83;21547;-75
2021/05/03 06:59:11;;;;;;;2.85;1.30;;;;;;;22.91;34.82;97050.23;1718721;83;21144;-77
2021/05/03 07:01:39;;;;;;;1.90;1.20;;;;;;;22.24;34.01;97049.11;1718754;83;21141;-76
2021/05/03 07:04:07;;;;;;;3.58;1.10;;;;;;;21.81;34.57;97052.28;1718549;83;21156;-73
2021/05/03 07:06:35;;;;;;;3.45;1.27;;;;;;;21.61;35.14;97053.48;1712901;82;21168;-77
2021/05/03 07:09:07;;;;;;;4.40;1.30;;;;;;;21.44;35.20;97054.73;1694252;83;21124;-77
2021/05/03 07:11:31;;;;;;;3.10;1.42;;;;;;;21.46;35.50;97052.70;1717327;83;21120;-76
2021/05/03 07:13:59;;;;;;;1.55;1.27;;;;;;;21.77;35.07;97053.69;1718783;83;21566;-75
2021/05/03 07:16:26;;;;;;;1.45;1.07;;;;;;;22.08;34.40;97056.47;1718718;83;21161;-76
2021/05/03 07:18:55;;;;;;;2.25;1.20;;;;;;;21.96;34.11;97048.64;1706429;82;21163;-76
2021/05/03 07:21:22;;;;;;;1.50;1.22;;;;;;;21.40;34.26;97061.00;1715621;83;21173;-77
2021/05/03 07:23:50;;;;;;;1.40;1.30;;;;;;;20.85;32.59;97060.17;1718338;83;21606;-77
2021/05/03 07:26:18;;;;;;;1.45;1.00;;;;;;;20.51;34.83;97060.27;1718672;83;21140;-76
2021/05/03 07:28:46;;;;;;;1.85;1.00;;;;;;;20.16;34.16;97060.53;1718753;83;21132;-75
2021/05/03 07:31:14;;;;;;;1.90;1.37;;;;;;;19.84;34.08;97058.00;1716444;81;21578;-76
2021/05/03 07:33:41;;;;;;;3.20;1.37;;;;;;;19.30;33.64;97054.50;1718690;83;21175;-75
2021/05/03 07:36:09;;;;;;;1.80;1.30;;;;;;;19.19;35.12;97054.91;1718672;83;21148;-77
2021/05/03 07:38:37;;;;;;;1.90;1.30;;;;;;;19.35;35.54;97057.45;1719108;83;21164;-78
2021/05/03 07:41:05;;;;;;;2.08;1.60;;;;;;;19.51;35.24;97057.81;1718735;83;21701;-77
2021/05/03 07:43:35;;;;;;;2.20;1.20;;;;;;;19.64;35.28;97063.88;1718655;83;21148;-77
2021/05/03 07:46:03;;;;;;;1.52;1.17;;;;;;;19.86;35.54;97062.70;1718611;83;21171;-77
2021/05/03 07:48:30;;;;;;;2.05;1.20;;;;;;;20.29;34.53;97057.52;1718694;83;21151;-77
2021/05/03 07:50:58;;;;;;;2.20;1.25;;;;;;;20.55;34.96;97056.22;1718596;83;21144;-75
2021/05/03 07:53:25;;;;;;;1.80;1.30;;;;;;;20.41;33.53;97065.09;1718669;83;21175;-76
2021/05/03 07:55:53;;;;;;;2.37;1.32;;;;;;;20.09;34.51;97061.28;1718461;83;21120;-76
2021/05/03 07:58:20;;;;;;;3.37;1.40;;;;;;;19.88;34.21;97048.64;1719068;83;21136;-76
2021/05/03 08:00:49;;;;;;;2.12;1.40;;;;;;;19.43;32.91;97063.76;1718226;83;21583;-77
2021/05/03 08:03:17;;;;;;;1.30;1.10;;;;;;;18.87;34.33;97064.29;1718662;83;21164;-75
2021/05/03 08:05:45;;;;;;;1.60;1.40;;;;;;;18.79;35.40;97061.67;1718795;83;21579;-77
2021/05/03 08:08:13;;;;;;;5.22;1.50;;;;;;;18.82;34.91;97075.17;1718511;83;21143;-76
2021/05/03 08:10:40;;;;;;;2.65;1.27;;;;;;;19.08;35.53;97070.86;1718600;83;21156;-76
2021/05/03 08:13:08;;;;;;;1.30;1.00;;;;;;;19.42;35.43;97068.25;1718625;83;21164;-76
2021/05/03 08:15:35;;;;;;;2.17;1.10;;;;;;;19.79;34.85;97065.23;1718561;83;21169;-76
2021/05/03 08:18:02;;;;;;;2.83;0.80;;;;;;;19.81;34.27;97071.77;1718573;83;21143;-75
2021/05/03 08:20:30;;;;;;;1.42;1.00;;;;;;;19.82;33.82;97076.07;1713295;83;21143;-76
2021/05/03 08:22:57;;;;;;;1.80;0.82;;;;;;;19.94;33.50;97086.69;1652809;86;21634;-77
2021/05/03 08:25:26;;;;;;;1.10;0.85;;;;;;;19.85;31.64;97082.43;1704191;83;21180;-76
2021/05/03 08:27:55;;;;;;;1.02;0.80;;;;;;;19.40;32.70;97075.61;1713281;83;21129;-74
2021/05/03 08:30:23;;;;;;;4.42;0.80;;;;;;;19.14;33.58;97081.34;1711784;83;21570;-76
2021/05/03 08:32:50;;;;;;;1.70;0.65;;;;;;;19.06;33.46;97077.40;1718539;82;21802;-76
2021/05/03 08:35:18;;;;;;;1.37;1.10;;;;;;;18.97;32.76;97076.13;1718813;83;21157;-76
2021/05/03 08:37:46;;;;;;;0.88;0.60;;;;;;;18.84;33.27;97085.99;1716520;83;21144;-76
2021/05/03 08:40:15;;;;;;;3.72;0.80;;;;;;;18.90;33.37;97069.77;1716590;83;21148;-77
2021/05/03 08:42:44;;;;;;;2.22;0.80;;;;;;;18.76;32.98;97078.55;1718887;83;21152;-76
2021/05/03 08:45:13;;;;;;;1.85;0.70;;;;;;;18.62;33.44;97074.27;1718638;83;21129;-77
2021/05/03 08:47:52;;;;;;;1.02;0.80;;;;;;;18.26;33.21;97069.43;1718304;83;21559;-76
2021/05/03 08:52:56;;;;;;;1.20;0.90;;;;;;;18.32;33.90;97093.26;1792610;79;23488;-77
2021/05/03 08:55:22;;;;;;;4.72;0.90;;;;;;;18.24;33.16;97080.77;1792484;78;21282;-75
2021/05/03 08:57:49;;;;;;;1.20;0.98;;;;;;;18.39;33.28;97074.21;1798251;80;21581;-76
2021/05/03 09:00:18;;;;;;;2.75;0.90;;;;;;;18.37;33.14;97078.40;1799613;80;21159;-76
2021/05/03 09:02:47;;;;;;;2.47;1.00;;;;;;;18.36;33.68;97074.06;1800460;78;21573;-76
2021/05/03 09:05:16;;;;;;;5.62;1.07;;;;;;;18.45;33.65;97071.36;1798886;78;21135;-76
2021/05/03 09:07:51;;;;;;;1.67;0.82;;;;;;;18.72;34.35;97076.22;1819006;78;21548;-75
2021/05/03 09:10:21;;;;;;;22.95;5.33;;;;;;;18.95;33.10;97075.46;1828028;78;21092;-75
2021/05/03 09:12:49;;;;;;;4.08;1.20;;;;;;;19.08;33.49;97077.55;1807305;78;21121;-77
2021/05/03 09:15:24;;;;;;;1.60;1.07;;;;;;;19.04;33.48;97082.90;1800615;78;21087;-73
2021/05/03 09:17:52;;;;;;;1.17;0.90;;;;;;;18.65;32.68;97075.27;1774758;80;21565;-75
2021/05/03 09:20:24;;;;;;;1.12;0.93;;;;;;;18.38;34.11;97069.88;1739868;82;21203;-75
2021/05/03 09:23:19;;;;;;;1.70;1.00;;;;;;;18.00;34.18;97075.04;1739859;82;21721;-75
2021/05/03 09:28:27;;;;;;;1.02;0.80;;;;;;;17.52;35.30;97073.09;1819891;79;22949;-74
2021/05/03 09:31:00;;;;;;;1.40;1.10;;;;;;;17.33;34.74;97079.09;1768705;79;21124;-76
2021/05/03 09:33:35;;;;;;;2.58;0.88;;;;;;;17.04;36.00;97082.72;1711725;83;21133;-74
2021/05/03 09:36:07;;;;;;;;;;;;;;;17.00;36.39;97082.22;1737361;82;21196;-75
2021/05/03 09:38:42;;;;;;;1.92;1.25;;;;;;;16.75;36.03;97084.78;1707775;84;20133;-76
2021/05/03 09:41:27;;;;;;;2.75;1.20;;;;;;;16.49;36.26;97084.38;1708318;84;21141;-77
2021/05/03 09:44:06;;;;;;;1.60;1.05;;;;;;;16.35;36.54;97082.34;1733543;81;21146;-84
2021/05/03 09:46:38;;;;;;;3.52;1.25;;;;;;;16.23;36.63;97099.91;1708108;84;21221;-76
2021/05/03 09:49:13;;;;;;;3.15;1.22;;;;;;;16.13;36.58;97092.55;1719475;82;21536;-75
2021/05/03 09:51:47;;;;;;;1.30;0.93;;;;;;;16.08;36.64;97094.34;1736101;82;21134;-75
2021/05/03 09:54:27;;;;;;;1.40;1.10;;;;;;;16.14;36.84;97099.53;1737189;82;21095;-77
2021/05/03 09:57:10;;;;;;;4.20;1.37;;;;;;;16.20;36.96;97104.20;1737192;82;21611;-75
2021/05/03 09:59:50;;;;;;;1.00;0.90;;;;;;;16.18;36.96;97098.23;1725204;82;21160;-74
2021/05/03 10:05:14;;;;;;;2.10;1.20;;;;;;;16.22;36.86;97099.57;1779775;79;23040;-75
2021/05/03 10:07:51;;;;;;;1.55;1.20;;;;;;;16.24;37.35;97104.72;1751244;82;21109;-75
2021/05/03 10:12:53;;;;;;;2.02;1.40;;;;;;;16.29;37.45;97107.75;1824039;77;22693;-74
2021/05/03 10:15:20;;;;;;;1.70;1.20;;;;;;;16.21;37.61;97111.19;1827807;78;21160;-75
2021/05/03 10:17:48;;;;;;;2.10;1.30;;;;;;;16.33;37.99;97113.07;1827966;78;21158;-76
2021/05/03 10:20:21;;;;;;;1.90;1.20;;;;;;;16.51;37.91;97105.02;1828189;78;21144;-74
2021/05/03 10:22:53;;;;;;;1.35;1.00;;;;;;;16.51;37.75;97103.69;1827789;78;21140;-75
2021/05/03 10:25:21;;;;;;;1.57;1.17;;;;;;;16.38;37.87;97104.61;1824499;78;21143;-74
2021/05/03 10:27:52;;;;;;;1.55;1.32;;;;;;;16.23;37.94;97103.08;1822910;78;21104;-73
2021/05/03 10:30:23;;;;;;;3.05;1.07;;;;;;;16.19;38.48;97109.18;1768840;81;21139;-75
2021/05/03 10:33:00;;;;;;;2.47;1.20;;;;;;;16.13;38.44;97106.34;1769027;81;21163;-75
2021/05/03 10:35:31;;;;;;;4.55;1.30;;;;;;;16.07;38.61;97109.95;1767239;81;21100;-75
2021/05/03 10:38:00;;;;;;;5.08;1.20;;;;;;;16.00;38.53;97113.42;1757481;81;21140;-74
2021/05/03 10:40:40;;;;;;;1.50;1.17;;;;;;;15.92;38.19;97101.73;1752861;82;21791;-75
2021/05/03 10:43:13;;;;;;;1.52;1.10;;;;;;;15.92;38.78;97113.69;1771156;81;21636;-73
2021/05/03 10:46:07;;;;;;;13.72;2.30;;;;;;;15.82;36.99;97107.64;1771088;81;21220;-76
2021/05/03 10:48:43;;;;;;;2.80;1.10;;;;;;;15.80;37.94;97107.43;1769631;81;21151;-75
2021/05/03 10:51:10;;;;;;;4.37;1.37;;;;;;;15.85;37.48;97106.01;1770667;81;21159;-75
2021/05/03 10:53:44;;;;;;;5.45;1.50;;;;;;;15.86;37.04;97102.36;1770969;81;21147;-75
2021/05/03 10:56:12;;;;;;;;;;;;;;;15.88;37.23;97100.39;1773824;81;21569;-76
2021/05/03 10:59:00;;;;;;;2.52;1.05;;;;;;;15.95;36.75;97092.62;1770516;81;20145;-74
2021/05/03 11:01:27;;;;;;;2.30;1.10;;;;;;;16.05;37.18;97089.84;1771114;81;21597;-76
2021/05/03 11:04:00;;;;;;;3.45;2.17;;;;;;;16.19;36.49;97094.56;1771240;81;21143;-74
2021/05/03 11:06:48;;;;;;;1.40;1.10;;;;;;;16.24;36.22;97082.97;1771073;81;21163;-77
2021/05/03 11:09:36;;;;;;;2.05;0.90;;;;;;;16.33;36.45;97086.98;1743096;81;21110;-77
2021/05/03 11:12:12;;;;;;;5.55;1.32;;;;;;;16.49;35.72;97084.89;1731367;81;21168;-74
2021/05/03 11:15:10;;;;;;;2.70;0.88;;;;;;;16.48;35.68;97088.03;1737677;82;21136;-75
2021/05/03 11:17:37;;;;;;;1.70;0.82;;;;;;;16.51;34.00;97092.22;1738590;82;21184;-76
2021/05/03 11:25:36;;;;;;;0.88;0.70;;;;;;;16.86;33.73;97082.33;1762242;79;23076;-75
2021/05/03 11:28:15;;;;;;;3.47;1.00;;;;;;;16.77;32.84;97085.97;1740613;82;21186;-74
2021/05/03 11:31:00;;;;;;;1.92;1.00;;;;;;;16.71;33.89;97093.59;1730064;82;21133;-74
2021/05/03 11:33:49;;;;;;;2.75;0.90;;;;;;;16.68;33.45;97085.95;1731088;82;21610;-76
2021/05/03 11:36:24;;;;;;;1.35;1.07;;;;;;;16.70;33.94;97089.27;1725105;82;21141;-77
2021/05/03 11:39:06;;;;;;;1.30;0.80;;;;;;;16.74;32.90;97078.30;1728473;82;21140;-74
2021/05/03 11:41:42;;;;;;;2.85;1.00;;;;;;;16.75;33.48;97078.64;1725810;82;21591;-76
2021/05/03 11:46:36;;;;;;;2.60;1.40;;;;;;;16.67;32.06;97074.97;1726341;82;21146;-78
2021/05/03 11:49:15;;;;;;;2.85;1.00;;;;;;;16.68;32.32;97077.13;1704612;82;21138;-75
2021/05/03 11:51:57;;;;;;;3.60;1.00;;;;;;;16.72;32.09;97078.48;1733923;82;21156;-75
2021/05/03 11:54:37;;;;;;;2.98;0.95;;;;;;;16.69;33.06;97091.62;1721900;83;21137;-75
2021/05/03 11:57:14;;;;;;;1.20;0.90;;;;;;;16.70;33.04;97093.77;1721751;83;21641;-78
2021/05/03 11:59:40;;;;;;;1.82;1.27;;;;;;;16.71;32.88;97090.11;1712819;83;21178;-75
2021/05/03 12:02:11;;;;;;;3.37;1.05;;;;;;;16.75;32.69;97087.44;1711183;84;21171;-75
2021/05/03 12:04:46;;;;;;;0.95;0.70;;;;;;;16.77;32.54;97079.32;1680071;84;21136;-75
2021/05/03 12:07:29;;;;;;;4.12;0.78;;;;;;;16.78;32.21;97080.98;1690850;84;21195;-79
2021/05/03 12:10:14;;;;;;;1.20;0.75;;;;;;;16.82;32.40;97071.66;1684255;84;21173;-75
2021/05/03 12:12:47;;;;;;;1.62;0.80;;;;;;;16.88;32.78;97075.02;1697960;84;21160;-77
2021/05/03 12:15:26;;;;;;;3.85;0.93;;;;;;;16.89;31.60;97076.66;1694333;84;21145;-76
2021/05/03 12:18:01;;;;;;;1.30;0.93;;;;;;;16.91;32.37;97065.87;1704542;84;21173;-75